<?xml version="1.0" encoding="UTF-8" standalone="no" ?>
<gpx xmlns="http://www.topografix.com/GPX/1/1" xmlns:xsi="http://www.w3.org/2001/XMLSchema-instance" xsi:schemaLocation="http://www.topografix.com/GPX/1/1 http://www.topografix.com/GPX/1/1/gpx.xsd" version="1.1" creator="VisuGPX - https://www.visugpx.com">
  <metadata>
    <name>LE VAUDOUÉ</name>
    <desc><![CDATA[Roissy-Aux-Cailles avec GILLES]]></desc>
  </metadata>
  <trk>
    <name><![CDATA[--Vaudoué (Le)-- OR-5461564:Boissy aux Cailles]]></name>
    <trkseg>
      <trkpt lat="48.35495" lon="2.51892">
        <ele>71</ele>
        <time>2015-11-15T16:15:02Z</time>
      </trkpt>
      <trkpt lat="48.35471" lon="2.51865">
        <ele>70</ele>
        <time>2015-11-15T16:17:02Z</time>
      </trkpt>
      <trkpt lat="48.35452" lon="2.51854">
        <ele>70</ele>
        <time>2015-11-15T16:19:02Z</time>
      </trkpt>
      <trkpt lat="48.35438" lon="2.51855">
        <ele>70</ele>
        <time>2015-11-15T16:21:02Z</time>
      </trkpt>
      <trkpt lat="48.35415" lon="2.51854">
        <ele>70</ele>
        <time>2015-11-15T16:23:02Z</time>
      </trkpt>
      <trkpt lat="48.35374" lon="2.51846">
        <ele>70</ele>
        <time>2015-11-15T16:25:02Z</time>
      </trkpt>
      <trkpt lat="48.35368" lon="2.51807">
        <ele>70</ele>
        <time>2015-11-15T16:27:02Z</time>
      </trkpt>
      <trkpt lat="48.35391" lon="2.51762">
        <ele>70</ele>
        <time>2015-11-15T16:29:02Z</time>
      </trkpt>
      <trkpt lat="48.35379" lon="2.51729">
        <ele>70</ele>
        <time>2015-11-15T16:31:02Z</time>
      </trkpt>
      <trkpt lat="48.35358" lon="2.51689">
        <ele>69</ele>
        <time>2015-11-15T16:33:02Z</time>
      </trkpt>
      <trkpt lat="48.35342" lon="2.51657">
        <ele>69</ele>
        <time>2015-11-15T16:35:02Z</time>
      </trkpt>
      <trkpt lat="48.35335" lon="2.5164">
        <ele>69</ele>
        <time>2015-11-15T16:37:02Z</time>
      </trkpt>
      <trkpt lat="48.35333" lon="2.51623">
        <ele>69</ele>
        <time>2015-11-15T16:39:02Z</time>
      </trkpt>
      <trkpt lat="48.35337" lon="2.51599">
        <ele>69</ele>
        <time>2015-11-15T16:41:02Z</time>
      </trkpt>
      <trkpt lat="48.35337" lon="2.51575">
        <ele>69</ele>
        <time>2015-11-15T16:43:02Z</time>
      </trkpt>
      <trkpt lat="48.35337" lon="2.51557">
        <ele>69</ele>
        <time>2015-11-15T16:45:02Z</time>
      </trkpt>
      <trkpt lat="48.35336" lon="2.51538">
        <ele>70</ele>
        <time>2015-11-15T16:47:02Z</time>
      </trkpt>
      <trkpt lat="48.3533" lon="2.51523">
        <ele>70</ele>
        <time>2015-11-15T16:49:02Z</time>
      </trkpt>
      <trkpt lat="48.3534" lon="2.51504">
        <ele>70</ele>
        <time>2015-11-15T16:51:02Z</time>
      </trkpt>
      <trkpt lat="48.35352" lon="2.51482">
        <ele>70</ele>
        <time>2015-11-15T16:53:02Z</time>
      </trkpt>
      <trkpt lat="48.35362" lon="2.51473">
        <ele>70</ele>
        <time>2015-11-15T16:55:02Z</time>
      </trkpt>
      <trkpt lat="48.35372" lon="2.51468">
        <ele>70</ele>
        <time>2015-11-15T16:57:02Z</time>
      </trkpt>
      <trkpt lat="48.35489" lon="2.51443">
        <ele>68</ele>
        <time>2015-11-15T16:59:02Z</time>
      </trkpt>
      <trkpt lat="48.35475" lon="2.51362">
        <ele>69</ele>
        <time>2015-11-15T17:01:02Z</time>
      </trkpt>
      <trkpt lat="48.35453" lon="2.51261">
        <ele>73</ele>
        <time>2015-11-15T17:03:02Z</time>
      </trkpt>
      <trkpt lat="48.35436" lon="2.51166">
        <ele>82</ele>
        <time>2015-11-15T17:05:02Z</time>
      </trkpt>
      <trkpt lat="48.35429" lon="2.51125">
        <ele>83</ele>
        <time>2015-11-15T17:07:02Z</time>
      </trkpt>
      <trkpt lat="48.35414" lon="2.51084">
        <ele>85</ele>
        <time>2015-11-15T17:09:02Z</time>
      </trkpt>
      <trkpt lat="48.35402" lon="2.51059">
        <ele>86</ele>
        <time>2015-11-15T17:11:02Z</time>
      </trkpt>
      <trkpt lat="48.35389" lon="2.51038">
        <ele>88</ele>
        <time>2015-11-15T17:13:02Z</time>
      </trkpt>
      <trkpt lat="48.35376" lon="2.51018">
        <ele>89</ele>
        <time>2015-11-15T17:15:02Z</time>
      </trkpt>
      <trkpt lat="48.3536" lon="2.50983">
        <ele>91</ele>
        <time>2015-11-15T17:17:02Z</time>
      </trkpt>
      <trkpt lat="48.35332" lon="2.50901">
        <ele>95</ele>
        <time>2015-11-15T17:19:02Z</time>
      </trkpt>
      <trkpt lat="48.35311" lon="2.50842">
        <ele>98</ele>
        <time>2015-11-15T17:21:02Z</time>
      </trkpt>
      <trkpt lat="48.35305" lon="2.50814">
        <ele>100</ele>
        <time>2015-11-15T17:23:02Z</time>
      </trkpt>
      <trkpt lat="48.35296" lon="2.50809">
        <ele>100</ele>
        <time>2015-11-15T17:25:02Z</time>
      </trkpt>
      <trkpt lat="48.35286" lon="2.50806">
        <ele>101</ele>
        <time>2015-11-15T17:27:02Z</time>
      </trkpt>
      <trkpt lat="48.35278" lon="2.50799">
        <ele>102</ele>
        <time>2015-11-15T17:29:02Z</time>
      </trkpt>
      <trkpt lat="48.35238" lon="2.50711">
        <ele>101</ele>
        <time>2015-11-15T17:31:02Z</time>
      </trkpt>
      <trkpt lat="48.3506" lon="2.50497">
        <ele>110</ele>
        <time>2015-11-15T17:33:02Z</time>
      </trkpt>
      <trkpt lat="48.34923" lon="2.50848">
        <ele>109</ele>
        <time>2015-11-15T17:35:02Z</time>
      </trkpt>
      <trkpt lat="48.34785" lon="2.50638">
        <ele>109</ele>
        <time>2015-11-15T17:37:02Z</time>
      </trkpt>
      <trkpt lat="48.34764" lon="2.50613">
        <ele>109</ele>
        <time>2015-11-15T17:39:02Z</time>
      </trkpt>
      <trkpt lat="48.34742" lon="2.506">
        <ele>109</ele>
        <time>2015-11-15T17:41:02Z</time>
      </trkpt>
      <trkpt lat="48.34725" lon="2.50589">
        <ele>109</ele>
        <time>2015-11-15T17:43:02Z</time>
      </trkpt>
      <trkpt lat="48.34701" lon="2.5057">
        <ele>108</ele>
        <time>2015-11-15T17:45:02Z</time>
      </trkpt>
      <trkpt lat="48.34672" lon="2.50548">
        <ele>108</ele>
        <time>2015-11-15T17:47:02Z</time>
      </trkpt>
      <trkpt lat="48.34604" lon="2.5046">
        <ele>109</ele>
        <time>2015-11-15T17:49:02Z</time>
      </trkpt>
      <trkpt lat="48.34495" lon="2.50323">
        <ele>111</ele>
        <time>2015-11-15T17:51:02Z</time>
      </trkpt>
      <trkpt lat="48.34423" lon="2.50233">
        <ele>115</ele>
        <time>2015-11-15T17:53:02Z</time>
      </trkpt>
      <trkpt lat="48.34413" lon="2.50224">
        <ele>116</ele>
        <time>2015-11-15T17:55:02Z</time>
      </trkpt>
      <trkpt lat="48.34338" lon="2.50161">
        <ele>117</ele>
        <time>2015-11-15T17:57:02Z</time>
      </trkpt>
      <trkpt lat="48.34286" lon="2.50121">
        <ele>118</ele>
        <time>2015-11-15T17:59:02Z</time>
      </trkpt>
      <trkpt lat="48.34291" lon="2.50102">
        <ele>117</ele>
        <time>2015-11-15T18:01:02Z</time>
      </trkpt>
      <trkpt lat="48.34321" lon="2.49966">
        <ele>115</ele>
        <time>2015-11-15T18:03:02Z</time>
      </trkpt>
      <trkpt lat="48.34161" lon="2.499">
        <ele>115</ele>
        <time>2015-11-15T18:05:02Z</time>
      </trkpt>
      <trkpt lat="48.34156" lon="2.49859">
        <ele>114</ele>
        <time>2015-11-15T18:07:02Z</time>
      </trkpt>
      <trkpt lat="48.34154" lon="2.49828">
        <ele>113</ele>
        <time>2015-11-15T18:09:02Z</time>
      </trkpt>
      <trkpt lat="48.34153" lon="2.49804">
        <ele>113</ele>
        <time>2015-11-15T18:11:02Z</time>
      </trkpt>
      <trkpt lat="48.34148" lon="2.49764">
        <ele>113</ele>
        <time>2015-11-15T18:13:02Z</time>
      </trkpt>
      <trkpt lat="48.34144" lon="2.49693">
        <ele>113</ele>
        <time>2015-11-15T18:15:02Z</time>
      </trkpt>
      <trkpt lat="48.34142" lon="2.4958">
        <ele>112</ele>
        <time>2015-11-15T18:17:02Z</time>
      </trkpt>
      <trkpt lat="48.3414" lon="2.49505">
        <ele>115</ele>
        <time>2015-11-15T18:19:02Z</time>
      </trkpt>
      <trkpt lat="48.34141" lon="2.49467">
        <ele>116</ele>
        <time>2015-11-15T18:21:02Z</time>
      </trkpt>
      <trkpt lat="48.34143" lon="2.49434">
        <ele>117</ele>
        <time>2015-11-15T18:23:02Z</time>
      </trkpt>
      <trkpt lat="48.34145" lon="2.49409">
        <ele>117</ele>
        <time>2015-11-15T18:25:02Z</time>
      </trkpt>
      <trkpt lat="48.34151" lon="2.49364">
        <ele>117</ele>
        <time>2015-11-15T18:27:02Z</time>
      </trkpt>
      <trkpt lat="48.34153" lon="2.49305">
        <ele>118</ele>
        <time>2015-11-15T18:29:02Z</time>
      </trkpt>
      <trkpt lat="48.34164" lon="2.49225">
        <ele>120</ele>
        <time>2015-11-15T18:31:02Z</time>
      </trkpt>
      <trkpt lat="48.34264" lon="2.49223">
        <ele>119</ele>
        <time>2015-11-15T18:33:02Z</time>
      </trkpt>
      <trkpt lat="48.34253" lon="2.49068">
        <ele>119</ele>
        <time>2015-11-15T18:35:02Z</time>
      </trkpt>
      <trkpt lat="48.34211" lon="2.49075">
        <ele>119</ele>
        <time>2015-11-15T18:37:02Z</time>
      </trkpt>
      <trkpt lat="48.34204" lon="2.49057">
        <ele>119</ele>
        <time>2015-11-15T18:39:02Z</time>
      </trkpt>
      <trkpt lat="48.34187" lon="2.48831">
        <ele>117</ele>
        <time>2015-11-15T18:41:02Z</time>
      </trkpt>
      <trkpt lat="48.34181" lon="2.48766">
        <ele>117</ele>
        <time>2015-11-15T18:43:02Z</time>
      </trkpt>
      <trkpt lat="48.34159" lon="2.4836">
        <ele>118</ele>
        <time>2015-11-15T18:45:02Z</time>
      </trkpt>
      <trkpt lat="48.34151" lon="2.48201">
        <ele>118</ele>
        <time>2015-11-15T18:47:02Z</time>
      </trkpt>
      <trkpt lat="48.34146" lon="2.4809">
        <ele>118</ele>
        <time>2015-11-15T18:49:02Z</time>
      </trkpt>
      <trkpt lat="48.3397" lon="2.48065">
        <ele>112</ele>
        <time>2015-11-15T18:51:02Z</time>
      </trkpt>
      <trkpt lat="48.33959" lon="2.48064">
        <ele>112</ele>
        <time>2015-11-15T18:53:02Z</time>
      </trkpt>
      <trkpt lat="48.33898" lon="2.481">
        <ele>111</ele>
        <time>2015-11-15T18:55:02Z</time>
      </trkpt>
      <trkpt lat="48.33881" lon="2.4811">
        <ele>112</ele>
        <time>2015-11-15T18:57:02Z</time>
      </trkpt>
      <trkpt lat="48.33863" lon="2.48129">
        <ele>113</ele>
        <time>2015-11-15T18:59:02Z</time>
      </trkpt>
      <trkpt lat="48.33848" lon="2.48162">
        <ele>113</ele>
        <time>2015-11-15T19:01:02Z</time>
      </trkpt>
      <trkpt lat="48.33797" lon="2.4829">
        <ele>115</ele>
        <time>2015-11-15T19:03:02Z</time>
      </trkpt>
      <trkpt lat="48.33727" lon="2.48455">
        <ele>115</ele>
        <time>2015-11-15T19:05:02Z</time>
      </trkpt>
      <trkpt lat="48.33648" lon="2.48632">
        <ele>113</ele>
        <time>2015-11-15T19:07:02Z</time>
      </trkpt>
      <trkpt lat="48.33622" lon="2.48693">
        <ele>112</ele>
        <time>2015-11-15T19:09:02Z</time>
      </trkpt>
      <trkpt lat="48.33585" lon="2.48769">
        <ele>113</ele>
        <time>2015-11-15T19:11:02Z</time>
      </trkpt>
      <trkpt lat="48.33564" lon="2.48811">
        <ele>116</ele>
        <time>2015-11-15T19:13:02Z</time>
      </trkpt>
      <trkpt lat="48.33556" lon="2.48838">
        <ele>117</ele>
        <time>2015-11-15T19:15:02Z</time>
      </trkpt>
      <trkpt lat="48.33541" lon="2.4889">
        <ele>120</ele>
        <time>2015-11-15T19:17:02Z</time>
      </trkpt>
      <trkpt lat="48.33529" lon="2.48937">
        <ele>122</ele>
        <time>2015-11-15T19:19:02Z</time>
      </trkpt>
      <trkpt lat="48.33523" lon="2.48982">
        <ele>123</ele>
        <time>2015-11-15T19:21:02Z</time>
      </trkpt>
      <trkpt lat="48.33515" lon="2.49036">
        <ele>123</ele>
        <time>2015-11-15T19:23:02Z</time>
      </trkpt>
      <trkpt lat="48.3351" lon="2.49066">
        <ele>122</ele>
        <time>2015-11-15T19:25:02Z</time>
      </trkpt>
      <trkpt lat="48.33499" lon="2.49102">
        <ele>122</ele>
        <time>2015-11-15T19:27:02Z</time>
      </trkpt>
      <trkpt lat="48.33495" lon="2.4913">
        <ele>122</ele>
        <time>2015-11-15T19:29:02Z</time>
      </trkpt>
      <trkpt lat="48.33487" lon="2.49169">
        <ele>121</ele>
        <time>2015-11-15T19:31:02Z</time>
      </trkpt>
      <trkpt lat="48.33483" lon="2.49209">
        <ele>120</ele>
        <time>2015-11-15T19:33:02Z</time>
      </trkpt>
      <trkpt lat="48.33479" lon="2.4926">
        <ele>118</ele>
        <time>2015-11-15T19:35:02Z</time>
      </trkpt>
      <trkpt lat="48.33478" lon="2.49298">
        <ele>117</ele>
        <time>2015-11-15T19:37:02Z</time>
      </trkpt>
      <trkpt lat="48.33478" lon="2.49348">
        <ele>115</ele>
        <time>2015-11-15T19:39:02Z</time>
      </trkpt>
      <trkpt lat="48.3348" lon="2.49438">
        <ele>110</ele>
        <time>2015-11-15T19:41:02Z</time>
      </trkpt>
      <trkpt lat="48.33489" lon="2.4947">
        <ele>110</ele>
        <time>2015-11-15T19:43:02Z</time>
      </trkpt>
      <trkpt lat="48.33497" lon="2.49514">
        <ele>110</ele>
        <time>2015-11-15T19:45:02Z</time>
      </trkpt>
      <trkpt lat="48.335" lon="2.49569">
        <ele>111</ele>
        <time>2015-11-15T19:47:02Z</time>
      </trkpt>
      <trkpt lat="48.33498" lon="2.49609">
        <ele>111</ele>
        <time>2015-11-15T19:49:02Z</time>
      </trkpt>
      <trkpt lat="48.33503" lon="2.49657">
        <ele>112</ele>
        <time>2015-11-15T19:51:02Z</time>
      </trkpt>
      <trkpt lat="48.3351" lon="2.49717">
        <ele>111</ele>
        <time>2015-11-15T19:53:02Z</time>
      </trkpt>
      <trkpt lat="48.33513" lon="2.49758">
        <ele>110</ele>
        <time>2015-11-15T19:55:02Z</time>
      </trkpt>
      <trkpt lat="48.3351" lon="2.49788">
        <ele>110</ele>
        <time>2015-11-15T19:57:02Z</time>
      </trkpt>
      <trkpt lat="48.33503" lon="2.49859">
        <ele>110</ele>
        <time>2015-11-15T19:59:02Z</time>
      </trkpt>
      <trkpt lat="48.33495" lon="2.49968">
        <ele>105</ele>
        <time>2015-11-15T20:01:02Z</time>
      </trkpt>
      <trkpt lat="48.3349" lon="2.49995">
        <ele>103</ele>
        <time>2015-11-15T20:03:02Z</time>
      </trkpt>
      <trkpt lat="48.33482" lon="2.50022">
        <ele>100</ele>
        <time>2015-11-15T20:05:02Z</time>
      </trkpt>
      <trkpt lat="48.33475" lon="2.50054">
        <ele>97</ele>
        <time>2015-11-15T20:07:02Z</time>
      </trkpt>
      <trkpt lat="48.3347" lon="2.50078">
        <ele>95</ele>
        <time>2015-11-15T20:09:02Z</time>
      </trkpt>
      <trkpt lat="48.33465" lon="2.50106">
        <ele>93</ele>
        <time>2015-11-15T20:11:02Z</time>
      </trkpt>
      <trkpt lat="48.33456" lon="2.50136">
        <ele>91</ele>
        <time>2015-11-15T20:13:02Z</time>
      </trkpt>
      <trkpt lat="48.33451" lon="2.50147">
        <ele>91</ele>
        <time>2015-11-15T20:15:02Z</time>
      </trkpt>
      <trkpt lat="48.33447" lon="2.50169">
        <ele>90</ele>
        <time>2015-11-15T20:17:02Z</time>
      </trkpt>
      <trkpt lat="48.3345" lon="2.50189">
        <ele>89</ele>
        <time>2015-11-15T20:19:02Z</time>
      </trkpt>
      <trkpt lat="48.33458" lon="2.50218">
        <ele>87</ele>
        <time>2015-11-15T20:21:02Z</time>
      </trkpt>
      <trkpt lat="48.33466" lon="2.50254">
        <ele>85</ele>
        <time>2015-11-15T20:23:02Z</time>
      </trkpt>
      <trkpt lat="48.33483" lon="2.50303">
        <ele>81</ele>
        <time>2015-11-15T20:25:02Z</time>
      </trkpt>
      <trkpt lat="48.33486" lon="2.50329">
        <ele>79</ele>
        <time>2015-11-15T20:27:02Z</time>
      </trkpt>
      <trkpt lat="48.33485" lon="2.50357">
        <ele>78</ele>
        <time>2015-11-15T20:29:02Z</time>
      </trkpt>
      <trkpt lat="48.33439" lon="2.50463">
        <ele>77</ele>
        <time>2015-11-15T20:31:02Z</time>
      </trkpt>
      <trkpt lat="48.33217" lon="2.50256">
        <ele>72</ele>
        <time>2015-11-15T20:33:02Z</time>
      </trkpt>
      <trkpt lat="48.33005" lon="2.50057">
        <ele>74</ele>
        <time>2015-11-15T20:35:02Z</time>
      </trkpt>
      <trkpt lat="48.32897" lon="2.4996">
        <ele>80</ele>
        <time>2015-11-15T20:37:02Z</time>
      </trkpt>
      <trkpt lat="48.32865" lon="2.49925">
        <ele>81</ele>
        <time>2015-11-15T20:39:02Z</time>
      </trkpt>
      <trkpt lat="48.32846" lon="2.49905">
        <ele>82</ele>
        <time>2015-11-15T20:41:02Z</time>
      </trkpt>
      <trkpt lat="48.32821" lon="2.49865">
        <ele>82</ele>
        <time>2015-11-15T20:43:02Z</time>
      </trkpt>
      <trkpt lat="48.32805" lon="2.49841">
        <ele>81</ele>
        <time>2015-11-15T20:45:02Z</time>
      </trkpt>
      <trkpt lat="48.3279" lon="2.49829">
        <ele>81</ele>
        <time>2015-11-15T20:47:02Z</time>
      </trkpt>
      <trkpt lat="48.32738" lon="2.49819">
        <ele>81</ele>
        <time>2015-11-15T20:49:02Z</time>
      </trkpt>
      <trkpt lat="48.32676" lon="2.49817">
        <ele>80</ele>
        <time>2015-11-15T20:51:02Z</time>
      </trkpt>
      <trkpt lat="48.32639" lon="2.49818">
        <ele>79</ele>
        <time>2015-11-15T20:53:02Z</time>
      </trkpt>
      <trkpt lat="48.32583" lon="2.4983">
        <ele>77</ele>
        <time>2015-11-15T20:55:02Z</time>
      </trkpt>
      <trkpt lat="48.3252" lon="2.49847">
        <ele>77</ele>
        <time>2015-11-15T20:57:02Z</time>
      </trkpt>
      <trkpt lat="48.32468" lon="2.4986">
        <ele>76</ele>
        <time>2015-11-15T20:59:02Z</time>
      </trkpt>
      <trkpt lat="48.32433" lon="2.4987">
        <ele>76</ele>
        <time>2015-11-15T21:01:02Z</time>
      </trkpt>
      <trkpt lat="48.32406" lon="2.49875">
        <ele>75</ele>
        <time>2015-11-15T21:03:02Z</time>
      </trkpt>
      <trkpt lat="48.32377" lon="2.49885">
        <ele>75</ele>
        <time>2015-11-15T21:05:02Z</time>
      </trkpt>
      <trkpt lat="48.32269" lon="2.49926">
        <ele>78</ele>
        <time>2015-11-15T21:07:02Z</time>
      </trkpt>
      <trkpt lat="48.32247" lon="2.49933">
        <ele>80</ele>
        <time>2015-11-15T21:09:02Z</time>
      </trkpt>
      <trkpt lat="48.3222" lon="2.49934">
        <ele>81</ele>
        <time>2015-11-15T21:11:02Z</time>
      </trkpt>
      <trkpt lat="48.32191" lon="2.4994">
        <ele>83</ele>
        <time>2015-11-15T21:13:02Z</time>
      </trkpt>
      <trkpt lat="48.3217" lon="2.49953">
        <ele>84</ele>
        <time>2015-11-15T21:15:02Z</time>
      </trkpt>
      <trkpt lat="48.32149" lon="2.49973">
        <ele>86</ele>
        <time>2015-11-15T21:17:02Z</time>
      </trkpt>
      <trkpt lat="48.32136" lon="2.49992">
        <ele>85</ele>
        <time>2015-11-15T21:19:02Z</time>
      </trkpt>
      <trkpt lat="48.32119" lon="2.50028">
        <ele>85</ele>
        <time>2015-11-15T21:21:02Z</time>
      </trkpt>
      <trkpt lat="48.32107" lon="2.50072">
        <ele>85</ele>
        <time>2015-11-15T21:23:02Z</time>
      </trkpt>
      <trkpt lat="48.32092" lon="2.50106">
        <ele>83</ele>
        <time>2015-11-15T21:25:02Z</time>
      </trkpt>
      <trkpt lat="48.32082" lon="2.50139">
        <ele>83</ele>
        <time>2015-11-15T21:27:02Z</time>
      </trkpt>
      <trkpt lat="48.3207" lon="2.50159">
        <ele>83</ele>
        <time>2015-11-15T21:29:02Z</time>
      </trkpt>
      <trkpt lat="48.32051" lon="2.50174">
        <ele>82</ele>
        <time>2015-11-15T21:31:02Z</time>
      </trkpt>
      <trkpt lat="48.3203" lon="2.50162">
        <ele>80</ele>
        <time>2015-11-15T21:33:02Z</time>
      </trkpt>
      <trkpt lat="48.32" lon="2.5013">
        <ele>78</ele>
        <time>2015-11-15T21:35:02Z</time>
      </trkpt>
      <trkpt lat="48.31961" lon="2.50085">
        <ele>80</ele>
        <time>2015-11-15T21:37:02Z</time>
      </trkpt>
      <trkpt lat="48.31948" lon="2.50102">
        <ele>80</ele>
        <time>2015-11-15T21:39:02Z</time>
      </trkpt>
      <trkpt lat="48.3194" lon="2.5014">
        <ele>79</ele>
        <time>2015-11-15T21:41:02Z</time>
      </trkpt>
      <trkpt lat="48.3194" lon="2.50201">
        <ele>78</ele>
        <time>2015-11-15T21:43:02Z</time>
      </trkpt>
      <trkpt lat="48.31939" lon="2.50257">
        <ele>77</ele>
        <time>2015-11-15T21:45:02Z</time>
      </trkpt>
      <trkpt lat="48.31928" lon="2.50258">
        <ele>77</ele>
        <time>2015-11-15T21:47:02Z</time>
      </trkpt>
      <trkpt lat="48.31878" lon="2.50242">
        <ele>87</ele>
        <time>2015-11-15T21:49:02Z</time>
      </trkpt>
      <trkpt lat="48.31841" lon="2.50449">
        <ele>89</ele>
        <time>2015-11-15T21:51:02Z</time>
      </trkpt>
      <trkpt lat="48.31847" lon="2.50462">
        <ele>87</ele>
        <time>2015-11-15T21:53:02Z</time>
      </trkpt>
      <trkpt lat="48.31843" lon="2.50488">
        <ele>86</ele>
        <time>2015-11-15T21:55:02Z</time>
      </trkpt>
      <trkpt lat="48.31832" lon="2.50516">
        <ele>85</ele>
        <time>2015-11-15T21:57:02Z</time>
      </trkpt>
      <trkpt lat="48.3183" lon="2.50543">
        <ele>83</ele>
        <time>2015-11-15T21:59:02Z</time>
      </trkpt>
      <trkpt lat="48.31824" lon="2.50573">
        <ele>81</ele>
        <time>2015-11-15T22:01:02Z</time>
      </trkpt>
      <trkpt lat="48.31816" lon="2.50641">
        <ele>78</ele>
        <time>2015-11-15T22:03:02Z</time>
      </trkpt>
      <trkpt lat="48.31813" lon="2.50678">
        <ele>77</ele>
        <time>2015-11-15T22:05:02Z</time>
      </trkpt>
      <trkpt lat="48.31806" lon="2.50705">
        <ele>77</ele>
        <time>2015-11-15T22:07:02Z</time>
      </trkpt>
      <trkpt lat="48.31708" lon="2.50684">
        <ele>79</ele>
        <time>2015-11-15T22:09:02Z</time>
      </trkpt>
      <trkpt lat="48.31677" lon="2.50938">
        <ele>81</ele>
        <time>2015-11-15T22:11:02Z</time>
      </trkpt>
      <trkpt lat="48.31611" lon="2.50918">
        <ele>83</ele>
        <time>2015-11-15T22:13:02Z</time>
      </trkpt>
      <trkpt lat="48.31587" lon="2.50913">
        <ele>84</ele>
        <time>2015-11-15T22:15:02Z</time>
      </trkpt>
      <trkpt lat="48.31547" lon="2.50917">
        <ele>85</ele>
        <time>2015-11-15T22:17:02Z</time>
      </trkpt>
      <trkpt lat="48.31512" lon="2.50933">
        <ele>88</ele>
        <time>2015-11-15T22:19:02Z</time>
      </trkpt>
      <trkpt lat="48.31492" lon="2.50939">
        <ele>89</ele>
        <time>2015-11-15T22:21:02Z</time>
      </trkpt>
      <trkpt lat="48.31466" lon="2.50937">
        <ele>89</ele>
        <time>2015-11-15T22:23:02Z</time>
      </trkpt>
      <trkpt lat="48.31447" lon="2.50926">
        <ele>88</ele>
        <time>2015-11-15T22:25:02Z</time>
      </trkpt>
      <trkpt lat="48.31422" lon="2.50903">
        <ele>88</ele>
        <time>2015-11-15T22:27:02Z</time>
      </trkpt>
      <trkpt lat="48.31402" lon="2.50873">
        <ele>90</ele>
        <time>2015-11-15T22:29:02Z</time>
      </trkpt>
      <trkpt lat="48.31385" lon="2.50852">
        <ele>90</ele>
        <time>2015-11-15T22:31:02Z</time>
      </trkpt>
      <trkpt lat="48.31369" lon="2.5084">
        <ele>89</ele>
        <time>2015-11-15T22:33:02Z</time>
      </trkpt>
      <trkpt lat="48.31358" lon="2.50831">
        <ele>89</ele>
        <time>2015-11-15T22:35:02Z</time>
      </trkpt>
      <trkpt lat="48.31332" lon="2.50818">
        <ele>87</ele>
        <time>2015-11-15T22:37:02Z</time>
      </trkpt>
      <trkpt lat="48.31315" lon="2.50802">
        <ele>86</ele>
        <time>2015-11-15T22:39:02Z</time>
      </trkpt>
      <trkpt lat="48.31292" lon="2.50788">
        <ele>85</ele>
        <time>2015-11-15T22:41:02Z</time>
      </trkpt>
      <trkpt lat="48.31281" lon="2.50739">
        <ele>84</ele>
        <time>2015-11-15T22:43:02Z</time>
      </trkpt>
      <trkpt lat="48.31264" lon="2.50672">
        <ele>89</ele>
        <time>2015-11-15T22:45:02Z</time>
      </trkpt>
      <trkpt lat="48.31247" lon="2.50629">
        <ele>92</ele>
        <time>2015-11-15T22:47:02Z</time>
      </trkpt>
      <trkpt lat="48.31221" lon="2.50584">
        <ele>97</ele>
        <time>2015-11-15T22:49:02Z</time>
      </trkpt>
      <trkpt lat="48.31203" lon="2.50557">
        <ele>99</ele>
        <time>2015-11-15T22:51:02Z</time>
      </trkpt>
      <trkpt lat="48.31179" lon="2.50513">
        <ele>101</ele>
        <time>2015-11-15T22:53:02Z</time>
      </trkpt>
      <trkpt lat="48.31163" lon="2.50496">
        <ele>100</ele>
        <time>2015-11-15T22:55:02Z</time>
      </trkpt>
      <trkpt lat="48.31111" lon="2.50455">
        <ele>105</ele>
        <time>2015-11-15T22:57:02Z</time>
      </trkpt>
      <trkpt lat="48.31096" lon="2.50441">
        <ele>106</ele>
        <time>2015-11-15T22:59:02Z</time>
      </trkpt>
      <trkpt lat="48.31083" lon="2.50417">
        <ele>106</ele>
        <time>2015-11-15T23:01:02Z</time>
      </trkpt>
      <trkpt lat="48.31073" lon="2.50395">
        <ele>108</ele>
        <time>2015-11-15T23:03:02Z</time>
      </trkpt>
      <trkpt lat="48.31063" lon="2.5036">
        <ele>110</ele>
        <time>2015-11-15T23:05:02Z</time>
      </trkpt>
      <trkpt lat="48.31056" lon="2.50331">
        <ele>111</ele>
        <time>2015-11-15T23:07:02Z</time>
      </trkpt>
      <trkpt lat="48.3104" lon="2.50304">
        <ele>111</ele>
        <time>2015-11-15T23:09:02Z</time>
      </trkpt>
      <trkpt lat="48.31029" lon="2.50289">
        <ele>110</ele>
        <time>2015-11-15T23:11:02Z</time>
      </trkpt>
      <trkpt lat="48.31008" lon="2.50284">
        <ele>110</ele>
        <time>2015-11-15T23:13:02Z</time>
      </trkpt>
      <trkpt lat="48.30986" lon="2.50288">
        <ele>110</ele>
        <time>2015-11-15T23:15:02Z</time>
      </trkpt>
      <trkpt lat="48.30969" lon="2.5029">
        <ele>110</ele>
        <time>2015-11-15T23:17:02Z</time>
      </trkpt>
      <trkpt lat="48.30959" lon="2.50323">
        <ele>110</ele>
        <time>2015-11-15T23:19:02Z</time>
      </trkpt>
      <trkpt lat="48.30959" lon="2.50352">
        <ele>111</ele>
        <time>2015-11-15T23:21:02Z</time>
      </trkpt>
      <trkpt lat="48.30959" lon="2.50402">
        <ele>111</ele>
        <time>2015-11-15T23:23:02Z</time>
      </trkpt>
      <trkpt lat="48.30969" lon="2.50504">
        <ele>109</ele>
        <time>2015-11-15T23:25:02Z</time>
      </trkpt>
      <trkpt lat="48.30976" lon="2.50567">
        <ele>110</ele>
        <time>2015-11-15T23:27:02Z</time>
      </trkpt>
      <trkpt lat="48.30994" lon="2.50678">
        <ele>110</ele>
        <time>2015-11-15T23:29:02Z</time>
      </trkpt>
      <trkpt lat="48.31001" lon="2.50713">
        <ele>109</ele>
        <time>2015-11-15T23:31:02Z</time>
      </trkpt>
      <trkpt lat="48.30999" lon="2.50733">
        <ele>108</ele>
        <time>2015-11-15T23:33:02Z</time>
      </trkpt>
      <trkpt lat="48.30991" lon="2.50746">
        <ele>108</ele>
        <time>2015-11-15T23:35:02Z</time>
      </trkpt>
      <trkpt lat="48.30971" lon="2.50749">
        <ele>108</ele>
        <time>2015-11-15T23:37:02Z</time>
      </trkpt>
      <trkpt lat="48.30958" lon="2.50758">
        <ele>108</ele>
        <time>2015-11-15T23:39:02Z</time>
      </trkpt>
      <trkpt lat="48.30946" lon="2.50776">
        <ele>108</ele>
        <time>2015-11-15T23:41:02Z</time>
      </trkpt>
      <trkpt lat="48.30959" lon="2.50783">
        <ele>108</ele>
        <time>2015-11-15T23:43:02Z</time>
      </trkpt>
      <trkpt lat="48.30968" lon="2.50807">
        <ele>107</ele>
        <time>2015-11-15T23:45:02Z</time>
      </trkpt>
      <trkpt lat="48.30971" lon="2.50838">
        <ele>106</ele>
        <time>2015-11-15T23:47:02Z</time>
      </trkpt>
      <trkpt lat="48.30966" lon="2.50884">
        <ele>106</ele>
        <time>2015-11-15T23:49:02Z</time>
      </trkpt>
      <trkpt lat="48.30959" lon="2.50921">
        <ele>105</ele>
        <time>2015-11-15T23:51:02Z</time>
      </trkpt>
      <trkpt lat="48.30958" lon="2.50969">
        <ele>100</ele>
        <time>2015-11-15T23:53:02Z</time>
      </trkpt>
      <trkpt lat="48.30961" lon="2.50994">
        <ele>97</ele>
        <time>2015-11-15T23:55:02Z</time>
      </trkpt>
      <trkpt lat="48.3097" lon="2.5101">
        <ele>95</ele>
        <time>2015-11-15T23:57:02Z</time>
      </trkpt>
      <trkpt lat="48.30993" lon="2.51027">
        <ele>93</ele>
        <time>2015-11-15T23:59:02Z</time>
      </trkpt>
      <trkpt lat="48.31019" lon="2.5104">
        <ele>92</ele>
        <time>2015-11-16T00:01:02Z</time>
      </trkpt>
      <trkpt lat="48.31031" lon="2.51056">
        <ele>91</ele>
        <time>2015-11-16T00:03:02Z</time>
      </trkpt>
      <trkpt lat="48.31044" lon="2.51067">
        <ele>91</ele>
        <time>2015-11-16T00:05:02Z</time>
      </trkpt>
      <trkpt lat="48.31073" lon="2.51078">
        <ele>90</ele>
        <time>2015-11-16T00:07:02Z</time>
      </trkpt>
      <trkpt lat="48.31101" lon="2.51096">
        <ele>89</ele>
        <time>2015-11-16T00:09:02Z</time>
      </trkpt>
      <trkpt lat="48.3113" lon="2.51118">
        <ele>90</ele>
        <time>2015-11-16T00:11:02Z</time>
      </trkpt>
      <trkpt lat="48.31162" lon="2.5114">
        <ele>89</ele>
        <time>2015-11-16T00:13:02Z</time>
      </trkpt>
      <trkpt lat="48.3119" lon="2.51162">
        <ele>88</ele>
        <time>2015-11-16T00:15:02Z</time>
      </trkpt>
      <trkpt lat="48.31223" lon="2.51183">
        <ele>88</ele>
        <time>2015-11-16T00:17:02Z</time>
      </trkpt>
      <trkpt lat="48.31245" lon="2.5119">
        <ele>88</ele>
        <time>2015-11-16T00:19:02Z</time>
      </trkpt>
      <trkpt lat="48.3126" lon="2.51192">
        <ele>89</ele>
        <time>2015-11-16T00:21:02Z</time>
      </trkpt>
      <trkpt lat="48.31278" lon="2.51181">
        <ele>89</ele>
        <time>2015-11-16T00:23:02Z</time>
      </trkpt>
      <trkpt lat="48.31293" lon="2.51172">
        <ele>89</ele>
        <time>2015-11-16T00:25:02Z</time>
      </trkpt>
      <trkpt lat="48.3131" lon="2.51171">
        <ele>91</ele>
        <time>2015-11-16T00:27:02Z</time>
      </trkpt>
      <trkpt lat="48.31327" lon="2.51176">
        <ele>93</ele>
        <time>2015-11-16T00:29:02Z</time>
      </trkpt>
      <trkpt lat="48.31345" lon="2.5119">
        <ele>96</ele>
        <time>2015-11-16T00:31:02Z</time>
      </trkpt>
      <trkpt lat="48.31358" lon="2.51216">
        <ele>100</ele>
        <time>2015-11-16T00:33:02Z</time>
      </trkpt>
      <trkpt lat="48.31365" lon="2.51244">
        <ele>102</ele>
        <time>2015-11-16T00:35:02Z</time>
      </trkpt>
      <trkpt lat="48.31373" lon="2.51275">
        <ele>104</ele>
        <time>2015-11-16T00:37:02Z</time>
      </trkpt>
      <trkpt lat="48.31381" lon="2.51303">
        <ele>106</ele>
        <time>2015-11-16T00:39:02Z</time>
      </trkpt>
      <trkpt lat="48.31398" lon="2.51334">
        <ele>107</ele>
        <time>2015-11-16T00:41:02Z</time>
      </trkpt>
      <trkpt lat="48.31411" lon="2.5136">
        <ele>109</ele>
        <time>2015-11-16T00:43:02Z</time>
      </trkpt>
      <trkpt lat="48.3142" lon="2.51387">
        <ele>111</ele>
        <time>2015-11-16T00:45:02Z</time>
      </trkpt>
      <trkpt lat="48.31427" lon="2.51419">
        <ele>113</ele>
        <time>2015-11-16T00:47:02Z</time>
      </trkpt>
      <trkpt lat="48.31437" lon="2.5145">
        <ele>115</ele>
        <time>2015-11-16T00:49:02Z</time>
      </trkpt>
      <trkpt lat="48.31444" lon="2.51506">
        <ele>118</ele>
        <time>2015-11-16T00:51:02Z</time>
      </trkpt>
      <trkpt lat="48.31467" lon="2.51555">
        <ele>118</ele>
        <time>2015-11-16T00:53:02Z</time>
      </trkpt>
      <trkpt lat="48.31484" lon="2.51594">
        <ele>118</ele>
        <time>2015-11-16T00:55:02Z</time>
      </trkpt>
      <trkpt lat="48.31493" lon="2.51614">
        <ele>118</ele>
        <time>2015-11-16T00:57:02Z</time>
      </trkpt>
      <trkpt lat="48.31527" lon="2.51677">
        <ele>116</ele>
        <time>2015-11-16T00:59:02Z</time>
      </trkpt>
      <trkpt lat="48.3155" lon="2.51706">
        <ele>116</ele>
        <time>2015-11-16T01:01:02Z</time>
      </trkpt>
      <trkpt lat="48.3158" lon="2.51769">
        <ele>119</ele>
        <time>2015-11-16T01:03:02Z</time>
      </trkpt>
      <trkpt lat="48.31612" lon="2.51815">
        <ele>118</ele>
        <time>2015-11-16T01:05:02Z</time>
      </trkpt>
      <trkpt lat="48.31629" lon="2.51832">
        <ele>118</ele>
        <time>2015-11-16T01:07:02Z</time>
      </trkpt>
      <trkpt lat="48.31641" lon="2.51853">
        <ele>118</ele>
        <time>2015-11-16T01:09:02Z</time>
      </trkpt>
      <trkpt lat="48.31656" lon="2.51881">
        <ele>118</ele>
        <time>2015-11-16T01:11:02Z</time>
      </trkpt>
      <trkpt lat="48.31681" lon="2.51919">
        <ele>118</ele>
        <time>2015-11-16T01:13:02Z</time>
      </trkpt>
      <trkpt lat="48.31694" lon="2.51925">
        <ele>118</ele>
        <time>2015-11-16T01:15:02Z</time>
      </trkpt>
      <trkpt lat="48.31708" lon="2.51936">
        <ele>118</ele>
        <time>2015-11-16T01:17:02Z</time>
      </trkpt>
      <trkpt lat="48.31718" lon="2.51952">
        <ele>119</ele>
        <time>2015-11-16T01:19:02Z</time>
      </trkpt>
      <trkpt lat="48.31746" lon="2.51982">
        <ele>119</ele>
        <time>2015-11-16T01:21:02Z</time>
      </trkpt>
      <trkpt lat="48.31752" lon="2.51999">
        <ele>119</ele>
        <time>2015-11-16T01:23:02Z</time>
      </trkpt>
      <trkpt lat="48.3177" lon="2.52022">
        <ele>120</ele>
        <time>2015-11-16T01:25:02Z</time>
      </trkpt>
      <trkpt lat="48.31786" lon="2.5204">
        <ele>122</ele>
        <time>2015-11-16T01:27:02Z</time>
      </trkpt>
      <trkpt lat="48.31816" lon="2.52023">
        <ele>122</ele>
        <time>2015-11-16T01:29:02Z</time>
      </trkpt>
      <trkpt lat="48.31845" lon="2.52013">
        <ele>123</ele>
        <time>2015-11-16T01:31:02Z</time>
      </trkpt>
      <trkpt lat="48.31863" lon="2.52015">
        <ele>123</ele>
        <time>2015-11-16T01:33:02Z</time>
      </trkpt>
      <trkpt lat="48.31888" lon="2.52011">
        <ele>123</ele>
        <time>2015-11-16T01:35:02Z</time>
      </trkpt>
      <trkpt lat="48.3194" lon="2.5201">
        <ele>125</ele>
        <time>2015-11-16T01:37:02Z</time>
      </trkpt>
      <trkpt lat="48.31988" lon="2.52016">
        <ele>126</ele>
        <time>2015-11-16T01:39:02Z</time>
      </trkpt>
      <trkpt lat="48.32052" lon="2.52022">
        <ele>126</ele>
        <time>2015-11-16T01:41:02Z</time>
      </trkpt>
      <trkpt lat="48.32075" lon="2.52036">
        <ele>125</ele>
        <time>2015-11-16T01:43:02Z</time>
      </trkpt>
      <trkpt lat="48.32095" lon="2.52041">
        <ele>124</ele>
        <time>2015-11-16T01:45:02Z</time>
      </trkpt>
      <trkpt lat="48.32129" lon="2.52037">
        <ele>121</ele>
        <time>2015-11-16T01:47:02Z</time>
      </trkpt>
      <trkpt lat="48.32164" lon="2.5204">
        <ele>118</ele>
        <time>2015-11-16T01:49:02Z</time>
      </trkpt>
      <trkpt lat="48.32193" lon="2.52042">
        <ele>116</ele>
        <time>2015-11-16T01:51:02Z</time>
      </trkpt>
      <trkpt lat="48.32212" lon="2.52044">
        <ele>115</ele>
        <time>2015-11-16T01:53:02Z</time>
      </trkpt>
      <trkpt lat="48.32238" lon="2.52056">
        <ele>114</ele>
        <time>2015-11-16T01:55:02Z</time>
      </trkpt>
      <trkpt lat="48.32259" lon="2.52067">
        <ele>113</ele>
        <time>2015-11-16T01:57:02Z</time>
      </trkpt>
      <trkpt lat="48.32276" lon="2.52078">
        <ele>113</ele>
        <time>2015-11-16T01:59:02Z</time>
      </trkpt>
      <trkpt lat="48.32297" lon="2.52095">
        <ele>113</ele>
        <time>2015-11-16T02:01:02Z</time>
      </trkpt>
      <trkpt lat="48.32313" lon="2.52098">
        <ele>113</ele>
        <time>2015-11-16T02:03:02Z</time>
      </trkpt>
      <trkpt lat="48.32334" lon="2.52095">
        <ele>112</ele>
        <time>2015-11-16T02:05:02Z</time>
      </trkpt>
      <trkpt lat="48.32438" lon="2.52073">
        <ele>113</ele>
        <time>2015-11-16T02:07:02Z</time>
      </trkpt>
      <trkpt lat="48.32518" lon="2.52056">
        <ele>116</ele>
        <time>2015-11-16T02:09:02Z</time>
      </trkpt>
      <trkpt lat="48.32558" lon="2.5205">
        <ele>118</ele>
        <time>2015-11-16T02:11:02Z</time>
      </trkpt>
      <trkpt lat="48.32612" lon="2.52051">
        <ele>121</ele>
        <time>2015-11-16T02:13:02Z</time>
      </trkpt>
      <trkpt lat="48.32671" lon="2.52042">
        <ele>126</ele>
        <time>2015-11-16T02:15:02Z</time>
      </trkpt>
      <trkpt lat="48.32687" lon="2.52038">
        <ele>126</ele>
        <time>2015-11-16T02:17:02Z</time>
      </trkpt>
      <trkpt lat="48.32715" lon="2.52031">
        <ele>128</ele>
        <time>2015-11-16T02:19:02Z</time>
      </trkpt>
      <trkpt lat="48.32811" lon="2.52027">
        <ele>128</ele>
        <time>2015-11-16T02:21:02Z</time>
      </trkpt>
      <trkpt lat="48.32877" lon="2.52022">
        <ele>126</ele>
        <time>2015-11-16T02:23:02Z</time>
      </trkpt>
      <trkpt lat="48.32906" lon="2.5202">
        <ele>124</ele>
        <time>2015-11-16T02:25:02Z</time>
      </trkpt>
      <trkpt lat="48.32933" lon="2.52013">
        <ele>123</ele>
        <time>2015-11-16T02:27:02Z</time>
      </trkpt>
      <trkpt lat="48.32955" lon="2.52009">
        <ele>122</ele>
        <time>2015-11-16T02:29:02Z</time>
      </trkpt>
      <trkpt lat="48.32977" lon="2.51998">
        <ele>121</ele>
        <time>2015-11-16T02:31:02Z</time>
      </trkpt>
      <trkpt lat="48.33008" lon="2.51985">
        <ele>120</ele>
        <time>2015-11-16T02:33:02Z</time>
      </trkpt>
      <trkpt lat="48.33053" lon="2.51969">
        <ele>117</ele>
        <time>2015-11-16T02:35:02Z</time>
      </trkpt>
      <trkpt lat="48.33102" lon="2.5195">
        <ele>115</ele>
        <time>2015-11-16T02:37:02Z</time>
      </trkpt>
      <trkpt lat="48.33142" lon="2.51928">
        <ele>113</ele>
        <time>2015-11-16T02:39:02Z</time>
      </trkpt>
      <trkpt lat="48.33169" lon="2.51919">
        <ele>112</ele>
        <time>2015-11-16T02:41:02Z</time>
      </trkpt>
      <trkpt lat="48.33197" lon="2.51907">
        <ele>112</ele>
        <time>2015-11-16T02:43:02Z</time>
      </trkpt>
      <trkpt lat="48.33237" lon="2.51884">
        <ele>113</ele>
        <time>2015-11-16T02:45:02Z</time>
      </trkpt>
      <trkpt lat="48.33261" lon="2.51818">
        <ele>113</ele>
        <time>2015-11-16T02:47:02Z</time>
      </trkpt>
      <trkpt lat="48.33291" lon="2.51731">
        <ele>114</ele>
        <time>2015-11-16T02:49:02Z</time>
      </trkpt>
      <trkpt lat="48.33331" lon="2.51616">
        <ele>115</ele>
        <time>2015-11-16T02:51:02Z</time>
      </trkpt>
      <trkpt lat="48.33377" lon="2.5149">
        <ele>114</ele>
        <time>2015-11-16T02:53:02Z</time>
      </trkpt>
      <trkpt lat="48.3339" lon="2.51452">
        <ele>113</ele>
        <time>2015-11-16T02:55:02Z</time>
      </trkpt>
      <trkpt lat="48.33401" lon="2.51424">
        <ele>112</ele>
        <time>2015-11-16T02:57:02Z</time>
      </trkpt>
      <trkpt lat="48.33406" lon="2.51394">
        <ele>111</ele>
        <time>2015-11-16T02:59:02Z</time>
      </trkpt>
      <trkpt lat="48.33403" lon="2.51373">
        <ele>110</ele>
        <time>2015-11-16T03:01:02Z</time>
      </trkpt>
      <trkpt lat="48.33414" lon="2.51363">
        <ele>109</ele>
        <time>2015-11-16T03:03:02Z</time>
      </trkpt>
      <trkpt lat="48.33425" lon="2.51366">
        <ele>110</ele>
        <time>2015-11-16T03:05:02Z</time>
      </trkpt>
      <trkpt lat="48.33436" lon="2.51363">
        <ele>110</ele>
        <time>2015-11-16T03:07:02Z</time>
      </trkpt>
      <trkpt lat="48.33444" lon="2.51353">
        <ele>109</ele>
        <time>2015-11-16T03:09:02Z</time>
      </trkpt>
      <trkpt lat="48.33455" lon="2.51346">
        <ele>109</ele>
        <time>2015-11-16T03:11:02Z</time>
      </trkpt>
      <trkpt lat="48.33465" lon="2.5138">
        <ele>111</ele>
        <time>2015-11-16T03:13:02Z</time>
      </trkpt>
      <trkpt lat="48.33472" lon="2.51397">
        <ele>112</ele>
        <time>2015-11-16T03:15:02Z</time>
      </trkpt>
      <trkpt lat="48.33485" lon="2.51418">
        <ele>114</ele>
        <time>2015-11-16T03:17:02Z</time>
      </trkpt>
      <trkpt lat="48.33505" lon="2.51449">
        <ele>115</ele>
        <time>2015-11-16T03:19:02Z</time>
      </trkpt>
      <trkpt lat="48.33527" lon="2.51493">
        <ele>118</ele>
        <time>2015-11-16T03:21:02Z</time>
      </trkpt>
      <trkpt lat="48.33545" lon="2.51521">
        <ele>120</ele>
        <time>2015-11-16T03:23:02Z</time>
      </trkpt>
      <trkpt lat="48.33555" lon="2.51543">
        <ele>121</ele>
        <time>2015-11-16T03:25:02Z</time>
      </trkpt>
      <trkpt lat="48.3356" lon="2.5156">
        <ele>121</ele>
        <time>2015-11-16T03:27:02Z</time>
      </trkpt>
      <trkpt lat="48.3357" lon="2.51587">
        <ele>122</ele>
        <time>2015-11-16T03:29:02Z</time>
      </trkpt>
      <trkpt lat="48.33581" lon="2.51596">
        <ele>123</ele>
        <time>2015-11-16T03:31:02Z</time>
      </trkpt>
      <trkpt lat="48.33592" lon="2.51608">
        <ele>123</ele>
        <time>2015-11-16T03:33:02Z</time>
      </trkpt>
      <trkpt lat="48.33597" lon="2.51624">
        <ele>123</ele>
        <time>2015-11-16T03:35:02Z</time>
      </trkpt>
      <trkpt lat="48.33603" lon="2.51641">
        <ele>123</ele>
        <time>2015-11-16T03:37:02Z</time>
      </trkpt>
      <trkpt lat="48.33618" lon="2.51649">
        <ele>123</ele>
        <time>2015-11-16T03:39:02Z</time>
      </trkpt>
      <trkpt lat="48.33632" lon="2.5164">
        <ele>124</ele>
        <time>2015-11-16T03:41:02Z</time>
      </trkpt>
      <trkpt lat="48.33654" lon="2.51628">
        <ele>124</ele>
        <time>2015-11-16T03:43:02Z</time>
      </trkpt>
      <trkpt lat="48.33669" lon="2.51615">
        <ele>124</ele>
        <time>2015-11-16T03:45:02Z</time>
      </trkpt>
      <trkpt lat="48.33689" lon="2.51596">
        <ele>123</ele>
        <time>2015-11-16T03:47:02Z</time>
      </trkpt>
      <trkpt lat="48.33709" lon="2.5159">
        <ele>123</ele>
        <time>2015-11-16T03:49:02Z</time>
      </trkpt>
      <trkpt lat="48.3375" lon="2.51588">
        <ele>122</ele>
        <time>2015-11-16T03:51:02Z</time>
      </trkpt>
      <trkpt lat="48.33781" lon="2.51589">
        <ele>123</ele>
        <time>2015-11-16T03:53:02Z</time>
      </trkpt>
      <trkpt lat="48.3384" lon="2.5158">
        <ele>124</ele>
        <time>2015-11-16T03:55:02Z</time>
      </trkpt>
      <trkpt lat="48.33897" lon="2.51578">
        <ele>125</ele>
        <time>2015-11-16T03:57:02Z</time>
      </trkpt>
      <trkpt lat="48.33957" lon="2.51574">
        <ele>123</ele>
        <time>2015-11-16T03:59:02Z</time>
      </trkpt>
      <trkpt lat="48.34005" lon="2.51569">
        <ele>121</ele>
        <time>2015-11-16T04:01:02Z</time>
      </trkpt>
      <trkpt lat="48.34052" lon="2.51565">
        <ele>119</ele>
        <time>2015-11-16T04:03:02Z</time>
      </trkpt>
      <trkpt lat="48.34085" lon="2.51565">
        <ele>119</ele>
        <time>2015-11-16T04:05:02Z</time>
      </trkpt>
      <trkpt lat="48.34132" lon="2.51573">
        <ele>117</ele>
        <time>2015-11-16T04:07:02Z</time>
      </trkpt>
      <trkpt lat="48.34251" lon="2.5159">
        <ele>116</ele>
        <time>2015-11-16T04:09:02Z</time>
      </trkpt>
      <trkpt lat="48.34326" lon="2.51607">
        <ele>116</ele>
        <time>2015-11-16T04:11:02Z</time>
      </trkpt>
      <trkpt lat="48.34371" lon="2.51619">
        <ele>115</ele>
        <time>2015-11-16T04:13:02Z</time>
      </trkpt>
      <trkpt lat="48.34419" lon="2.51636">
        <ele>114</ele>
        <time>2015-11-16T04:15:02Z</time>
      </trkpt>
      <trkpt lat="48.34453" lon="2.51638">
        <ele>113</ele>
        <time>2015-11-16T04:17:02Z</time>
      </trkpt>
      <trkpt lat="48.34492" lon="2.51637">
        <ele>111</ele>
        <time>2015-11-16T04:19:02Z</time>
      </trkpt>
      <trkpt lat="48.34525" lon="2.51637">
        <ele>111</ele>
        <time>2015-11-16T04:21:02Z</time>
      </trkpt>
      <trkpt lat="48.34551" lon="2.51634">
        <ele>111</ele>
        <time>2015-11-16T04:23:02Z</time>
      </trkpt>
      <trkpt lat="48.34563" lon="2.51637">
        <ele>111</ele>
        <time>2015-11-16T04:25:02Z</time>
      </trkpt>
      <trkpt lat="48.34582" lon="2.51634">
        <ele>111</ele>
        <time>2015-11-16T04:27:02Z</time>
      </trkpt>
      <trkpt lat="48.34598" lon="2.51622">
        <ele>109</ele>
        <time>2015-11-16T04:29:02Z</time>
      </trkpt>
      <trkpt lat="48.34614" lon="2.516">
        <ele>108</ele>
        <time>2015-11-16T04:31:02Z</time>
      </trkpt>
      <trkpt lat="48.34628" lon="2.51573">
        <ele>106</ele>
        <time>2015-11-16T04:33:02Z</time>
      </trkpt>
      <trkpt lat="48.34643" lon="2.51558">
        <ele>104</ele>
        <time>2015-11-16T04:35:02Z</time>
      </trkpt>
      <trkpt lat="48.34656" lon="2.51561">
        <ele>103</ele>
        <time>2015-11-16T04:37:02Z</time>
      </trkpt>
      <trkpt lat="48.34662" lon="2.51576">
        <ele>104</ele>
        <time>2015-11-16T04:39:02Z</time>
      </trkpt>
      <trkpt lat="48.34676" lon="2.5159">
        <ele>103</ele>
        <time>2015-11-16T04:41:02Z</time>
      </trkpt>
      <trkpt lat="48.34708" lon="2.51612">
        <ele>99</ele>
        <time>2015-11-16T04:43:02Z</time>
      </trkpt>
      <trkpt lat="48.34733" lon="2.51619">
        <ele>96</ele>
        <time>2015-11-16T04:45:02Z</time>
      </trkpt>
      <trkpt lat="48.34761" lon="2.51623">
        <ele>93</ele>
        <time>2015-11-16T04:47:02Z</time>
      </trkpt>
      <trkpt lat="48.34777" lon="2.51632">
        <ele>92</ele>
        <time>2015-11-16T04:49:02Z</time>
      </trkpt>
      <trkpt lat="48.34796" lon="2.51628">
        <ele>90</ele>
        <time>2015-11-16T04:51:02Z</time>
      </trkpt>
      <trkpt lat="48.34823" lon="2.51628">
        <ele>87</ele>
        <time>2015-11-16T04:53:02Z</time>
      </trkpt>
      <trkpt lat="48.34838" lon="2.5163">
        <ele>86</ele>
        <time>2015-11-16T04:55:02Z</time>
      </trkpt>
      <trkpt lat="48.34858" lon="2.51636">
        <ele>85</ele>
        <time>2015-11-16T04:57:02Z</time>
      </trkpt>
      <trkpt lat="48.34875" lon="2.51644">
        <ele>84</ele>
        <time>2015-11-16T04:59:02Z</time>
      </trkpt>
      <trkpt lat="48.34895" lon="2.51656">
        <ele>82</ele>
        <time>2015-11-16T05:01:02Z</time>
      </trkpt>
      <trkpt lat="48.3491" lon="2.51673">
        <ele>82</ele>
        <time>2015-11-16T05:03:02Z</time>
      </trkpt>
      <trkpt lat="48.34924" lon="2.51687">
        <ele>82</ele>
        <time>2015-11-16T05:05:02Z</time>
      </trkpt>
      <trkpt lat="48.34938" lon="2.51698">
        <ele>82</ele>
        <time>2015-11-16T05:07:02Z</time>
      </trkpt>
      <trkpt lat="48.34952" lon="2.51695">
        <ele>80</ele>
        <time>2015-11-16T05:09:02Z</time>
      </trkpt>
      <trkpt lat="48.34963" lon="2.5169">
        <ele>78</ele>
        <time>2015-11-16T05:11:02Z</time>
      </trkpt>
      <trkpt lat="48.34979" lon="2.51671">
        <ele>76</ele>
        <time>2015-11-16T05:13:02Z</time>
      </trkpt>
      <trkpt lat="48.34999" lon="2.51697">
        <ele>74</ele>
        <time>2015-11-16T05:15:02Z</time>
      </trkpt>
      <trkpt lat="48.3503" lon="2.51747">
        <ele>74</ele>
        <time>2015-11-16T05:17:02Z</time>
      </trkpt>
      <trkpt lat="48.35051" lon="2.51762">
        <ele>73</ele>
        <time>2015-11-16T05:19:02Z</time>
      </trkpt>
      <trkpt lat="48.35089" lon="2.51788">
        <ele>71</ele>
        <time>2015-11-16T05:21:02Z</time>
      </trkpt>
      <trkpt lat="48.35132" lon="2.51809">
        <ele>71</ele>
        <time>2015-11-16T05:23:02Z</time>
      </trkpt>
      <trkpt lat="48.35168" lon="2.51822">
        <ele>70</ele>
        <time>2015-11-16T05:25:02Z</time>
      </trkpt>
      <trkpt lat="48.35196" lon="2.51838">
        <ele>70</ele>
        <time>2015-11-16T05:27:02Z</time>
      </trkpt>
      <trkpt lat="48.35215" lon="2.51841">
        <ele>70</ele>
        <time>2015-11-16T05:29:02Z</time>
      </trkpt>
      <trkpt lat="48.3524" lon="2.51849">
        <ele>70</ele>
        <time>2015-11-16T05:31:02Z</time>
      </trkpt>
      <trkpt lat="48.35265" lon="2.51852">
        <ele>70</ele>
        <time>2015-11-16T05:33:02Z</time>
      </trkpt>
      <trkpt lat="48.35286" lon="2.51847">
        <ele>70</ele>
        <time>2015-11-16T05:35:02Z</time>
      </trkpt>
      <trkpt lat="48.35305" lon="2.51844">
        <ele>70</ele>
        <time>2015-11-16T05:37:02Z</time>
      </trkpt>
      <trkpt lat="48.35327" lon="2.5184">
        <ele>70</ele>
        <time>2015-11-16T05:39:02Z</time>
      </trkpt>
      <trkpt lat="48.35339" lon="2.51836">
        <ele>70</ele>
        <time>2015-11-16T05:41:02Z</time>
      </trkpt>
      <trkpt lat="48.35352" lon="2.51844">
        <ele>70</ele>
        <time>2015-11-16T05:43:02Z</time>
      </trkpt>
      <trkpt lat="48.35368" lon="2.51851">
        <ele>70</ele>
        <time>2015-11-16T05:45:02Z</time>
      </trkpt>
      <trkpt lat="48.35386" lon="2.51852">
        <ele>70</ele>
        <time>2015-11-16T05:47:02Z</time>
      </trkpt>
      <trkpt lat="48.35405" lon="2.51854">
        <ele>70</ele>
        <time>2015-11-16T05:49:02Z</time>
      </trkpt>
      <trkpt lat="48.35425" lon="2.5186">
        <ele>70</ele>
        <time>2015-11-16T05:51:02Z</time>
      </trkpt>
      <trkpt lat="48.35446" lon="2.51857">
        <ele>70</ele>
        <time>2015-11-16T05:53:02Z</time>
      </trkpt>
      <trkpt lat="48.35461" lon="2.51859">
        <ele>70</ele>
        <time>2015-11-16T05:55:02Z</time>
      </trkpt>
      <trkpt lat="48.35477" lon="2.51874">
        <ele>70</ele>
        <time>2015-11-16T05:57:02Z</time>
      </trkpt>
      <trkpt lat="48.35503" lon="2.51906">
        <ele>72</ele>
        <time>2015-11-16T05:59:02Z</time>
      </trkpt>
    </trkseg>
  </trk>
</gpx>